createdAt,value
2023-03-03T00:01:10.607Z,10.77
2023-03-03T00:06:30.880Z,8.52
2023-03-03T00:11:32.317Z,7.32
2023-03-03T00:16:40.793Z,11.35
2023-03-03T00:21:45.082Z,7.65
2023-03-03T00:26:50.651Z,9.43
2023-03-03T00:31:52.195Z,7.25
2023-03-03T00:36:56.228Z,8.35
2023-03-03T00:41:58.393Z,9.63
2023-03-03T00:47:20.049Z,7.55
2023-03-03T00:52:21.993Z,10.02
2023-03-03T00:57:23.558Z,8.80
2023-03-03T01:02:25.057Z,9.65
2023-03-03T01:07:26.520Z,8.00
2023-03-03T01:12:27.966Z,10.52
2023-03-03T01:17:29.398Z,6.90
2023-03-03T01:22:30.815Z,9.98
2023-03-03T01:27:32.379Z,6.47
2023-03-03T01:32:34.051Z,7.28
2023-03-03T01:37:36.191Z,6.38
2023-03-03T01:42:37.681Z,7.68
2023-03-03T01:47:39.380Z,7.03
2023-03-03T01:52:44.663Z,5.78
2023-03-03T01:57:48.585Z,8.98
2023-03-03T02:02:51.132Z,4.43
2023-03-03T02:07:52.865Z,7.40
2023-03-03T02:12:58.525Z,7.75
2023-03-03T02:18:01.800Z,4.88
2023-03-03T02:23:23.451Z,7.47
2023-03-03T02:28:26.731Z,6.50
2023-03-03T02:33:29.558Z,9.40
2023-03-03T02:38:35.716Z,5.03
2023-03-03T02:43:42.648Z,6.05
2023-03-03T02:48:44.114Z,5.80
2023-03-03T02:53:45.682Z,6.60
2023-03-03T02:58:47.116Z,6.68
2023-03-03T03:03:48.670Z,3.67
2023-03-03T03:08:50.272Z,7.65
2023-03-03T03:13:52.047Z,5.95
2023-03-03T03:18:53.466Z,7.63
2023-03-03T03:23:54.985Z,7.30
2023-03-03T03:28:56.486Z,8.38
2023-03-03T03:33:57.909Z,6.65
2023-03-03T03:38:59.292Z,9.88
2023-03-03T03:44:00.704Z,5.03
2023-03-03T03:49:02.170Z,6.00
2023-03-03T03:54:03.841Z,6.45
2023-03-03T03:59:08.542Z,7.05
2023-03-03T04:04:10.023Z,4.85
2023-03-03T04:09:11.676Z,4.75
2023-03-03T04:14:13.067Z,5.78
2023-03-03T04:19:14.439Z,7.55
2023-03-03T04:24:16.470Z,6.68
2023-03-03T04:29:17.890Z,4.70
2023-03-03T04:34:19.226Z,8.35
2023-03-03T04:39:20.625Z,7.18
2023-03-03T04:44:22.345Z,5.15
2023-03-03T04:49:23.777Z,5.68
2023-03-03T04:54:25.209Z,5.40
2023-03-03T04:59:26.581Z,6.60
2023-03-03T05:04:28.047Z,12.30
2023-03-03T05:09:29.712Z,12.20
2023-03-03T05:14:31.587Z,10.73
2023-03-03T05:19:34.966Z,9.40
2023-03-03T05:24:36.376Z,7.80
2023-03-03T05:29:37.853Z,8.35
2023-03-03T05:34:39.308Z,7.53
2023-03-03T05:39:40.760Z,7.28
2023-03-03T05:44:42.303Z,12.65
2023-03-03T05:49:43.681Z,10.63
2023-03-03T05:54:45.061Z,10.27
2023-03-03T05:59:46.443Z,12.10
2023-03-03T06:04:47.826Z,6.97
2023-03-03T06:09:49.213Z,8.73
2023-03-03T06:14:50.662Z,9.85
2023-03-03T06:19:52.069Z,13.30
2023-03-03T06:24:53.526Z,14.00
2023-03-03T06:29:54.966Z,10.50
2023-03-03T06:34:56.521Z,9.70
2023-03-03T06:39:57.930Z,9.93
2023-03-03T06:44:59.275Z,6.95
2023-03-03T06:50:00.672Z,6.32
2023-03-03T06:55:09.878Z,9.98
2023-03-03T07:00:15.808Z,7.95
2023-03-03T07:05:18.004Z,6.95
2023-03-03T07:10:24.050Z,9.93
2023-03-03T07:15:30.183Z,11.32
2023-03-03T07:20:39.105Z,6.50
2023-03-03T07:25:40.514Z,8.00
2023-03-03T07:30:42.335Z,7.47
2023-03-03T07:35:44.810Z,7.40
2023-03-03T07:40:51.598Z,6.53
2023-03-03T07:45:53.306Z,7.35
2023-03-03T07:50:56.204Z,7.22
2023-03-03T07:55:57.730Z,7.43
2023-03-03T08:01:17.871Z,5.75
2023-03-03T08:11:20.737Z,7.40
2023-03-03T08:16:26.119Z,6.03
2023-03-03T08:21:27.560Z,7.47
2023-03-03T08:26:29.068Z,4.47
2023-03-03T08:31:40.837Z,4.38
2023-03-03T08:36:42.903Z,3.40
2023-03-03T08:41:44.589Z,4.03
2023-03-03T08:46:46.113Z,3.05
2023-03-03T08:51:47.543Z,5.15
2023-03-03T08:56:49.092Z,9.85
2023-03-03T09:01:50.576Z,10.07
2023-03-03T09:06:51.992Z,8.75
2023-03-03T09:11:57.841Z,5.53
2023-03-03T09:16:59.239Z,2.75
2023-03-03T09:22:18.348Z,2.38
2023-03-03T09:27:24.286Z,13.88
2023-03-03T09:32:39.252Z,4.57
2023-03-03T09:37:41.137Z,5.05
2023-03-03T09:42:43.053Z,5.47
2023-03-03T09:48:06.807Z,3.00
2023-03-03T09:53:13.983Z,6.22
2023-03-03T09:58:21.562Z,3.33
2023-03-03T10:03:37.299Z,5.07
2023-03-03T10:08:57.553Z,3.45
2023-03-03T10:19:23.834Z,12.20
2023-03-03T10:24:34.444Z,9.63
2023-03-03T10:29:59.421Z,7.15
2023-03-03T10:35:14.615Z,4.63
2023-03-03T10:40:24.430Z,4.88
2023-03-03T10:45:45.442Z,3.88
2023-03-03T10:50:52.806Z,3.15
2023-03-03T10:56:14.272Z,6.45
2023-03-03T11:01:30.996Z,3.42
2023-03-03T11:06:35.254Z,3.63
2023-03-03T11:11:42.731Z,2.63
2023-03-03T11:17:01.415Z,4.63
2023-03-03T11:22:03.224Z,5.82
2023-03-03T11:27:04.640Z,4.97
2023-03-03T11:32:20.180Z,4.57
2023-03-03T11:37:27.640Z,6.88
2023-03-03T11:42:49.061Z,3.13
2023-03-03T11:47:58.060Z,4.88
2023-03-03T11:52:59.595Z,6.13
2023-03-03T11:58:20.525Z,2.17
2023-03-03T12:03:26.658Z,5.38
2023-03-03T12:08:43.683Z,5.35
2023-03-03T12:13:58.776Z,4.05
2023-03-03T12:19:00.204Z,6.93
2023-03-03T12:24:20.301Z,4.25
2023-03-03T12:34:42.004Z,2.70
2023-03-03T12:39:57.132Z,6.25
2023-03-03T12:45:10.908Z,5.30
2023-03-03T12:50:15.172Z,6.57
2023-03-03T12:55:22.558Z,9.38
2023-03-03T13:00:42.480Z,4.85
2023-03-03T13:06:02.668Z,8.23
2023-03-03T13:16:16.838Z,5.90
2023-03-03T13:21:22.092Z,6.88
2023-03-03T13:26:31.799Z,9.82
2023-03-03T13:31:35.240Z,5.60
2023-03-03T13:36:56.941Z,6.00
2023-03-03T13:42:33.915Z,7.57
2023-03-03T13:47:50.019Z,8.60
2023-03-03T13:52:54.606Z,6.05
2023-03-03T13:57:59.138Z,7.47
2023-03-03T14:03:00.694Z,10.00
2023-03-03T14:08:07.898Z,8.52
2023-03-03T14:13:13.593Z,7.53
2023-03-03T14:18:34.518Z,7.32
2023-03-03T14:23:41.872Z,11.93
2023-03-03T14:28:45.313Z,7.90
2023-03-03T14:33:58.290Z,9.45
2023-03-03T14:38:59.798Z,12.07
2023-03-03T14:44:02.308Z,11.60
2023-03-03T14:49:27.066Z,14.80
2023-03-03T14:54:30.453Z,13.15
2023-03-03T14:59:32.058Z,13.45
2023-03-03T15:04:34.213Z,12.85
2023-03-03T15:09:43.252Z,13.25
2023-03-03T15:14:46.441Z,13.20
2023-03-03T15:19:47.818Z,19.00
2023-03-03T15:24:55.073Z,17.10
2023-03-03T15:30:14.542Z,14.50
2023-03-03T15:35:27.770Z,20.03
2023-03-03T15:40:31.872Z,18.83
2023-03-03T15:45:33.866Z,12.48
2023-03-03T15:50:44.123Z,20.92
2023-03-03T15:55:45.611Z,11.98
2023-03-03T16:00:55.812Z,19.55
2023-03-03T16:06:17.756Z,26.70
2023-03-03T16:11:26.243Z,18.90
2023-03-03T16:16:35.988Z,22.08
2023-03-03T16:26:43.589Z,17.48
2023-03-03T16:31:51.133Z,14.60
2023-03-03T16:37:28.063Z,14.85
2023-03-03T16:42:33.227Z,17.63
2023-03-03T16:47:40.223Z,21.52
2023-03-03T16:52:49.867Z,21.13
2023-03-03T16:58:08.758Z,14.43
2023-03-03T17:03:28.752Z,16.67
2023-03-03T17:08:48.576Z,18.05
2023-03-03T17:14:08.856Z,18.88
2023-03-03T17:19:21.037Z,13.88
2023-03-03T17:24:41.072Z,14.95
2023-03-03T17:29:48.559Z,14.75
2023-03-03T17:35:04.931Z,20.58
2023-03-03T17:40:09.234Z,13.95
2023-03-03T17:45:12.945Z,24.80
2023-03-03T17:50:21.126Z,22.48
2023-03-03T17:55:28.669Z,19.42
2023-03-03T18:00:44.941Z,23.50
2023-03-03T18:05:46.352Z,19.98
2023-03-03T18:10:53.639Z,16.80
2023-03-03T18:16:13.800Z,21.27
2023-03-03T18:26:32.414Z,21.10
2023-03-03T18:31:44.481Z,19.30
2023-03-03T18:36:59.648Z,24.05
2023-03-03T18:42:08.449Z,17.63
2023-03-03T18:47:10.398Z,25.00
2023-03-03T18:52:20.273Z,19.17
2023-03-03T19:02:30.022Z,19.05
2023-03-03T19:07:40.491Z,15.77
2023-03-03T19:12:41.942Z,20.88
2023-03-03T19:17:49.027Z,19.77
2023-03-03T19:23:04.952Z,22.25
2023-03-03T19:28:06.466Z,18.25
2023-03-03T19:33:14.561Z,21.27
2023-03-03T19:38:34.693Z,22.15
2023-03-03T19:48:51.869Z,14.15
2023-03-03T19:54:13.390Z,14.52
2023-03-03T19:59:24.383Z,21.48
2023-03-03T20:04:50.696Z,20.42
2023-03-03T20:10:04.914Z,18.77
2023-03-03T20:15:27.080Z,17.48
2023-03-03T20:20:46.744Z,19.88
2023-03-03T20:25:48.221Z,17.73
2023-03-03T20:31:25.207Z,17.33
2023-03-03T20:36:41.771Z,18.73
2023-03-03T20:41:43.280Z,17.48
2023-03-03T20:46:44.681Z,19.02
2023-03-03T20:52:01.139Z,21.65
2023-03-03T20:57:06.164Z,26.98
2023-03-03T21:02:10.488Z,22.58
2023-03-03T21:07:25.965Z,36.25
2023-03-03T21:12:31.507Z,22.45
2023-03-03T21:17:33.361Z,17.27
2023-03-03T21:22:34.873Z,14.85
2023-03-03T21:27:39.014Z,14.85
2023-03-03T21:32:42.844Z,14.40
2023-03-03T21:37:47.549Z,19.38
2023-03-03T21:42:49.235Z,17.92
2023-03-03T21:47:51.433Z,14.20
2023-03-03T21:52:52.843Z,17.77
2023-03-03T21:57:54.287Z,20.45
2023-03-03T22:02:56.149Z,20.35
2023-03-03T22:07:57.568Z,17.50
2023-03-03T22:12:59.199Z,12.75
2023-03-03T22:18:00.753Z,18.70
2023-03-03T22:23:02.172Z,18.42
2023-03-03T22:28:03.585Z,12.02
2023-03-03T22:33:05.102Z,15.40
2023-03-03T22:38:06.593Z,14.60
2023-03-03T22:43:08.045Z,18.35
2023-03-03T22:48:09.433Z,16.65
2023-03-03T22:53:11.332Z,18.10
2023-03-03T22:58:31.284Z,16.85
2023-03-03T23:03:33.146Z,21.98
2023-03-03T23:08:34.688Z,14.77
2023-03-03T23:13:36.080Z,13.57
2023-03-03T23:18:37.451Z,15.75
2023-03-03T23:23:38.896Z,17.05
2023-03-03T23:28:40.394Z,13.63
2023-03-03T23:33:41.883Z,19.30
2023-03-03T23:38:43.418Z,16.48
2023-03-03T23:43:44.935Z,15.35
2023-03-03T23:48:46.333Z,19.40
2023-03-03T23:53:47.828Z,13.77
2023-03-03T23:58:49.339Z,16.25
